Somerset, Massachusetts
Current Conditions -  °F | °C
As of 5:53 PM on Tuesday 27 Jan 2015 (Local Time) from KEWB Reporting Station
Light Snow Light Snow  
Wind Chill:   Ceiling: 5000
Heat Index: 19°   Visibility: 5mi
Dew Point: 11°   Wind: 9mph
Humidity: 71%   Direction: 340°NNW
Pressure: 29.49"   Gusts: 25mph
Location:  41.75°N, 71.14°W
Report Text: KEWB 272253Z AUTO 34008G22KT 310V020 5SM -SN FEW027 OVC050 M07/M12 A2949 RMK AO2 UPB2158E20SNE2158B20 SLP987 P0000 T10721117 $
Loading
Personal Weather Stations






























Interactive Weather Map New forecast layout! Learn more

10-Day Weather Forecast

Advertisements
Track Severe Weather on mobile